Data for 05/23/2006

Time Sea-Level Adjusted Pressure Absolute Pressure Temperature Relative Humidity Dew Point   
(mb) (inHg) (mb) (inHg) (C) (F) (%) (C) (F)
00:05 1010 29.83 839 24.78 15.1 59.2 58 7 44.7
00:10 1010 29.83 839 24.78 14.4 57.9 61 7 44.7
00:15 1010 29.83 839 24.78 14 57.2 61 6.8 44.2
00:20 1010 29.83 839 24.78 14 57.2 63 7.1 44.8
00:25 1010 29.83 839 24.78 14 57.3 63 7.1 44.9
00:30 1010 29.83 839 24.78 14 57.2 63 7 44.6
00:35 1010 29.83 839 24.78 14.1 57.3 63 7.1 44.8
00:40 1010 29.83 839 24.78 14.2 57.5 62 7.2 44.9
00:45 1010 29.83 839 24.78 14.3 57.7 63 7.3 45.2
00:50 1010 29.83 839 24.78 14.3 57.7 63 7.4 45.3
00:55 1010 29.83 839 24.78 14.1 57.5 64 7.5 45.6
01:00 1010 29.83 839 24.78 14 57.3 64 7.4 45.2
01:05 1010 29.83 839 24.78 14.1 57.4 63 7.3 45.2
01:10 1010 29.83 839 24.78 14 57.2 65 7.6 45.7
01:15 1010 29.83 839 24.78 13.7 56.7 67 7.7 45.9
01:20 1010 29.83 839 24.78 13.2 55.7 69 7.7 45.8
01:25 1010 29.83 839 24.78 12.9 55.2 70 7.5 45.6
01:30 1010 29.83 839 24.78 12.9 55.1 67 6.9 44.5
01:35 1010 29.83 839 24.78 12.8 55 67 6.9 44.4
01:40 1010 29.83 839 24.78 13 55.4 66 6.9 44.4
01:45 1010 29.83 839 24.78 13.3 55.9 65 6.9 44.5
01:50 1010 29.83 839 24.78 13.4 56.1 65 7.1 44.7
01:55 1010 29.83 839 24.78 13.4 56.1 64 6.9 44.4
02:00 1010 29.83 839 24.78 13.5 56.2 64 6.9 44.4
02:05 1010 29.83 839 24.78 13.4 56.1 65 7 44.6
02:10 1010 29.83 839 24.78 13.3 56 65 7 44.6
02:15 1010 29.83 839 24.78 13.2 55.8 65 6.9 44.4
02:20 1010 29.83 839 24.78 13.1 55.6 66 7 44.5
02:25 1010 29.83 840 24.81 13 55.4 67 7 44.6
02:30 1010 29.83 840 24.81 12.9 55.2 68 7.1 44.8
02:35 1010 29.83 840 24.81 12.4 54.4 70 7.1 44.8
02:40 1010 29.83 840 24.81 12 53.6 71 6.9 44.5
02:45 1010 29.83 840 24.81 11.8 53.3 71 6.8 44.2
02:50 1010 29.83 840 24.81 11.6 52.9 70 6.3 43.4
02:55 1010 29.83 840 24.81 11.8 53.2 70 6.5 43.8
03:00 1011 29.85 840 24.81 11.9 53.4 69 6.4 43.5
03:05 1011 29.85 840 24.81 12 53.7 68 6.4 43.6
03:10 1011 29.85 840 24.81 12 53.6 69 6.5 43.7
03:15 1011 29.85 840 24.81 12 53.6 69 6.5 43.6
03:20 1011 29.85 840 24.81 12.1 53.8 69 6.5 43.8
03:25 1011 29.85 840 24.81 12.3 54.1 68 6.6 44
03:30 1011 29.85 840 24.81 12.4 54.2 68 6.7 44
03:35 1011 29.85 840 24.81 12 53.6 71 7 44.5
03:40 1011 29.85 840 24.81 11.3 52.4 73 6.7 44.1
03:45 1011 29.85 841 24.83 11.2 52.1 73 6.5 43.7
03:50 1011 29.85 840 24.81 11.4 52.5 70 6.2 43.2
03:55 1011 29.85 841 24.83 12 53.5 69 6.5 43.7
04:00 1011 29.85 841 24.83 12.1 53.9 68 6.4 43.5
04:05 1012 29.88 841 24.83 12.3 54.2 68 6.6 43.8
04:10 1012 29.88 841 24.83 12.5 54.5 67 6.5 43.7
04:15 1012 29.88 841 24.83 12.7 54.8 66 6.6 43.8
04:20 1012 29.88 841 24.83 12.9 55.1 65 6.6 43.8
04:25 1012 29.88 841 24.83 12.8 55 66 6.8 44.2
04:30 1012 29.88 841 24.83 12.6 54.6 67 6.6 43.9
04:35 1012 29.88 841 24.83 12.6 54.7 67 6.6 43.9
04:40 1012 29.88 841 24.83 12.8 55 66 6.7 44.1
04:45 1012 29.88 841 24.83 12.8 55.1 67 6.8 44.3
04:50 1012 29.88 841 24.83 12.8 55.1 67 6.8 44.3
04:55 1012 29.88 842 24.86 12.8 55 67 6.9 44.4
05:00 1012 29.88 842 24.86 12.8 55 68 7.1 44.7
05:05 1013 29.91 842 24.86 12.7 54.9 68 7.1 44.7
05:10 1013 29.91 842 24.86 12.7 54.8 68 7 44.5
05:15 1013 29.91 842 24.86 12.7 54.8 67 6.9 44.4
05:20 1013 29.91 842 24.86 12.8 55 67 6.9 44.4
05:25 1013 29.91 842 24.86 12.6 54.7 69 7.1 44.7
05:30 1013 29.91 842 24.86 12.3 54.2 69 6.9 44.5
05:35 1013 29.91 842 24.86 12.3 54.1 69 6.8 44.2
05:40 1013 29.91 842 24.86 12.2 54 71 7.1 44.8
05:45 1013 29.91 842 24.86 11.9 53.5 71 7 44.6
05:50 1013 29.91 842 24.86 12.1 53.9 70 6.9 44.4
05:55 1013 29.91 842 24.86 12.3 54.1 71 7.2 44.9
06:00 1013 29.91 842 24.86 12.3 54.1 71 7.2 44.9
06:05 1013 29.91 842 24.86 12.3 54.1 70 7.1 44.8
06:10 1013 29.91 842 24.86 12.4 54.2 70 7 44.6
06:15 1013 29.91 843 24.89 12.5 54.4 69 7 44.5
06:20 1014 29.94 843 24.89 12.5 54.5 71 7.4 45.3
06:25 1014 29.94 843 24.89 12.5 54.4 72 7.6 45.7
06:30 1014 29.94 843 24.89 12.4 54.4 73 7.8 46
06:35 1014 29.94 843 24.89 12.5 54.5 73 7.9 46.3
06:40 1014 29.94 843 24.89 12.6 54.6 74 8 46.4
06:45 1014 29.94 843 24.89 12.5 54.5 74 8.1 46.5
06:50 1014 29.94 843 24.89 12.3 54.1 78 8.6 47.5
06:55 1014 29.94 843 24.89 12.2 53.9 77 8.3 47
07:00 1014 29.94 843 24.89 12 53.6 82 9 48.2
07:05 1014 29.94 843 24.89 11.4 52.6 84 8.9 48
07:10 1014 29.94 843 24.89 11.4 52.5 84 8.7 47.7
07:15 1014 29.94 843 24.89 11.6 52.9 81 8.6 47.4
07:20 1014 29.94 843 24.89 11.9 53.4 78 8.3 46.9
07:25 1014 29.94 843 24.89 12 53.6 80 8.7 47.7
07:30 1014 29.94 844 24.92 12.1 53.8 79 8.6 47.5
07:35 1014 29.94 844 24.92 12.3 54.1 81 9.1 48.4
07:40 1015 29.97 844 24.92 12.3 54.2 77 8.3 47
07:45 1015 29.97 844 24.92 12.5 54.5 78 8.8 47.8
07:50 1015 29.97 844 24.92 12.6 54.7 79 9 48.2
07:55 1015 29.97 844 24.92 12.5 54.6 82 9.6 49.3
08:00 1015 29.97 844 24.92 12.6 54.7 78 9 48.1
08:05 1015 29.97 844 24.92 12.8 55.1 77 8.9 48
08:10 1015 29.97 844 24.92 13.1 55.5 75 8.8 47.8
08:15 1015 29.97 844 24.92 13.2 55.8 74 8.8 47.8
08:20 1015 29.97 844 24.92 13.1 55.6 75 8.8 47.9
08:25 1015 29.97 845 24.95 12.9 55.3 77 9 48.2
08:30 1015 29.97 845 24.95 12.8 55.1 77 9 48.2
08:35 1015 29.97 845 24.95 12.6 54.7 80 9.3 48.7
08:40 1016 30 845 24.95 12.5 54.4 80 9.1 48.4
08:45 1016 30 845 24.95 12.3 54.2 83 9.6 49.3
08:50 1016 30 845 24.95 11.9 53.3 87 9.8 49.6
08:55 1016 30 845 24.95 11.5 52.7 90 9.9 49.7
09:00 1016 30 845 24.95 11.3 52.3 91 9.8 49.7
09:05 1016 30 845 24.95 11.3 52.4 91 9.9 49.7
09:10 1016 30 845 24.95 11.3 52.3 90 9.7 49.4
09:15 1016 30 845 24.95 11.2 52.2 90 9.7 49.5
09:20 1016 30 845 24.95 11.2 52.1 90 9.6 49.2
09:25 1016 30 845 24.95 11.2 52.2 89 9.5 49.1
09:30 1016 30 845 24.95 11.2 52.2 89 9.4 49
09:35 1016 30 845 24.95 11.2 52.2 90 9.7 49.4
09:40 1016 30 845 24.95 11.3 52.4 90 9.7 49.4
09:45 1016 30 845 24.95 11.3 52.3 89 9.5 49.1
09:50 1016 30 845 24.95 11.5 52.6 87 9.3 48.8
09:55 1016 30 845 24.95 11.6 52.8 88 9.6 49.3
10:00 1016 30 845 24.95 11.8 53.3 86 9.6 49.3
10:05 1016 30 845 24.95 11.9 53.4 86 9.7 49.4
10:10 1016 30 845 24.95 12 53.6 83 9.2 48.5
10:15 1016 30 845 24.95 12.2 53.9 81 9 48.2
10:20 1016 30 845 24.95 12.3 54.2 79 8.8 47.9
10:25 1016 30 845 24.95 12.5 54.5 80 9.1 48.4
10:30 1016 30 845 24.95 12.8 55 77 9 48.1
10:35 1016 30 845 24.95 13 55.3 76 8.8 47.9
10:40 1016 30 845 24.95 13.2 55.7 75 8.9 48
10:45 1016 30 845 24.95 13.3 56 74 8.9 48
10:50 1016 30 845 24.95 13.6 56.5 75 9.3 48.8
10:55 1016 30 846 24.98 13.9 57 73 9.2 48.6
11:00 1016 30 846 24.98 14 57.3 71 9 48.1
11:05 1016 30 846 24.98 14.3 57.7 73 9.5 49
11:10 1016 30 846 24.98 14.5 58.1 70 9.1 48.3
11:15 1016 30 846 24.98 14.5 58 68 8.7 47.6
11:20 1017 30.03 846 24.98 14.3 57.8 71 9.1 48.4
11:25 1017 30.03 846 24.98 14.3 57.7 70 9 48.2
11:30 1017 30.03 846 24.98 14.4 57.9 63 7.5 45.4
11:35 1017 30.03 846 24.98 14.7 58.4 63 7.7 45.8
11:40 1017 30.03 846 24.98 14.8 58.6 60 7.3 45.1
11:45 1017 30.03 846 24.98 15.2 59.3 59 7.3 45.2
11:50 1017 30.03 846 24.98 15.5 60 59 7.7 45.8
11:55 1017 30.03 846 24.98 15.8 60.4 56 7.2 45
12:00 1017 30.03 846 24.98 16 60.8 56 7.3 45.1
12:05 1017 30.03 846 24.98 16.9 62.4 53 7.4 45.4
12:10 1017 30.03 846 24.98 17.1 62.8 53 7.6 45.6
12:15 1017 30.03 846 24.98 17.2 62.9 54 7.8 46
12:20 1017 30.03 846 24.98 16.8 62.3 56 8 46.3
12:25 1017 30.03 846 24.98 16.4 61.6 56 7.7 45.9
12:30 1017 30.03 846 24.98 16 60.8 58 7.9 46.3
12:35 1017 30.03 846 24.98 15.6 60 64 8.9 47.9
12:40 1017 30.03 846 24.98 14.9 58.9 69 9.3 48.7
12:45 1017 30.03 846 24.98 15.1 59.2 64 8.4 47.2
12:50 1017 30.03 846 24.98 16.4 61.6 61 9 48.3
12:55 1017 30.03 846 24.98 17 62.6 59 9.1 48.4
13:00 1017 30.03 846 24.98 17.3 63.1 54 8.1 46.6
13:05 1017 30.03 846 24.98 17.2 62.9 52 7.4 45.3
13:10 1017 30.03 846 24.98 17.8 64.1 49 7.1 44.7
13:15 1017 30.03 846 24.98 18.2 64.8 48 7.2 44.9
13:20 1017 30.03 846 24.98 18.8 65.8 46 7 44.6
13:25 1017 30.03 846 24.98 19.2 66.6 43 6.6 43.8
13:30 1016 30 846 24.98 19.3 66.7 43 6.6 44
13:35 1017 30.03 846 24.98 18.6 65.4 44 6.3 43.3
13:40 1017 30.03 846 24.98 19.2 66.5 44 6.9 44.3
13:45 1017 30.03 846 24.98 19.5 67.2 43 6.7 44
13:50 1017 30.03 846 24.98 19.8 67.6 41 6.1 43
13:55 1017 30.03 846 24.98 19.8 67.6 43 6.9 44.3
14:00 1017 30.03 846 24.98 19.2 66.6 42 6 42.8
14:05 1017 30.03 846 24.98 19.2 66.5 43 6.3 43.4
14:10 1017 30.03 846 24.98 18.9 65.9 43 6.3 43.4
14:15 1017 30.03 846 24.98 18.4 65.1 43 5.8 42.4
14:20 1017 30.03 846 24.98 18 64.4 44 5.7 42.2
14:25 1017 30.03 846 24.98 18.2 64.7 44 5.8 42.5
14:30 1017 30.03 846 24.98 18.3 64.9 45 6.4 43.5
14:35 1017 30.03 846 24.98 17.1 62.8 48 6.2 43.1
14:40 1017 30.03 846 24.98 17.6 63.6 44 5.3 41.6
14:45 1017 30.03 846 24.98 17.7 63.8 45 5.7 42.2
14:50 1017 30.03 846 24.98 18 64.5 45 6 42.7
14:55 1017 30.03 846 24.98 18.6 65.5 44 6.3 43.4
15:00 1017 30.03 846 24.98 18.6 65.4 42 5.7 42.3
15:05 1017 30.03 846 24.98 18.3 64.9 44 6.1 42.9
15:10 1017 30.03 846 24.98 18.7 65.7 42 5.8 42.4
15:15 1017 30.03 846 24.98 19.6 67.2 44 7.2 44.9
15:20 1017 30.03 846 24.98 20 68 35 4.3 39.8
15:25 1017 30.03 846 24.98 19.6 67.3 35 4 39.2
15:30 1017 30.03 846 24.98 19.2 66.6 37 4.2 39.6
15:35 1017 30.03 846 24.98 19.3 66.7 38 4.6 40.2
15:40 1017 30.03 846 24.98 19.9 67.7 34 3.7 38.7
15:45 1017 30.03 846 24.98 20.4 68.7 34 4.3 39.8
15:50 1017 30.03 846 24.98 20.4 68.7 34 4.2 39.6
15:55 1017 30.03 846 24.98 20.4 68.7 33 3.6 38.5
16:00 1016 30 846 24.98 20.4 68.7 33 3.8 38.8
16:05 1016 30 846 24.98 20.4 68.8 33 3.9 39
16:10 1016 30 846 24.98 20.7 69.2 33 4 39.2
16:15 1016 30 846 24.98 20.8 69.4 32 3.5 38.3
16:20 1016 30 846 24.98 21.4 70.4 31 3.9 39.1
16:25 1016 30 846 24.98 21.6 70.9 30 3.4 38.1
16:30 1017 30.03 846 24.98 21.6 70.8 30 3.3 37.9
16:35 1017 30.03 846 24.98 21.4 70.5 30 3.1 37.5
16:40 1017 30.03 846 24.98 21.7 71.1 29 3.1 37.6
16:45 1017 30.03 846 24.98 21.7 71 29 3 37.4
16:50 1017 30.03 846 24.98 21.5 70.7 29 3 37.4
16:55 1017 30.03 846 24.98 21.4 70.5 30 3.4 38.1
17:00 1017 30.03 846 24.98 21.3 70.3 29 2.9 37.3
17:05 1017 30.03 846 24.98 20.9 69.5 30 3 37.5
17:10 1017 30.03 846 24.98 20.6 69.1 30 2.6 36.8
17:15 1017 30.03 846 24.98 21 69.8 30 3.2 37.7
17:20 1017 30.03 846 24.98 20.9 69.6 31 3.3 38
17:25 1017 30.03 846 24.98 20.5 68.8 32 3.3 37.9
17:30 1017 30.03 846 24.98 20 67.9 31 2.7 36.8
17:35 1017 30.03 846 24.98 19.7 67.5 32 2.8 37
17:40 1017 30.03 846 24.98 19.8 67.7 32 2.9 37.2
17:45 1017 30.03 846 24.98 20.2 68.3 32 3.1 37.5
17:50 1017 30.03 846 24.98 20.6 69 31 2.8 37.1
17:55 1017 30.03 846 24.98 20.1 68.3 31 2.8 37
18:00 1017 30.03 846 24.98 20.3 68.5 30 2.3 36.2
18:05 1017 30.03 846 24.98 20.7 69.3 30 2.9 37.3
18:10 1017 30.03 846 24.98 20.8 69.5 29 2.5 36.4
18:15 1017 30.03 846 24.98 21 69.8 30 2.8 37.1
18:20 1017 30.03 846 24.98 20.9 69.6 29 2.3 36.2
18:25 1017 30.03 846 24.98 20.2 68.4 31 2.8 37.1
18:30 1017 30.03 846 24.98 19.6 67.3 31 2.3 36.1
18:35 1017 30.03 846 24.98 19.5 67.1 32 2.3 36.2
18:40 1017 30.03 846 24.98 19.6 67.2 32 2.6 36.7
18:45 1017 30.03 846 24.98 19.5 67.2 31 2 35.7
18:50 1017 30.03 846 24.98 19.5 67 31 2.1 35.8
18:55 1017 30.03 846 24.98 19.4 67 31 1.8 35.2
19:00 1017 30.03 846 24.98 19.3 66.7 32 2.1 35.8
19:05 1017 30.03 846 24.98 19.2 66.5 31 2 35.6
19:10 1017 30.03 846 24.98 19.2 66.6 32 2.1 35.8
19:15 1017 30.03 846 24.98 19.2 66.5 32 2.3 36.2
19:20 1017 30.03 847 25.01 19.1 66.4 32 2.1 35.8
19:25 1017 30.03 847 25.01 19.2 66.6 30 1.4 34.6
19:30 1017 30.03 847 25.01 19.3 66.8 30 1.7 35.1
19:35 1017 30.03 847 25.01 19.4 67 31 2.2 36
19:40 1017 30.03 847 25.01 19.3 66.7 32 2.2 35.9
19:45 1017 30.03 847 25.01 19.1 66.5 32 2.4 36.3
19:50 1017 30.03 847 25.01 19 66.2 33 2.5 36.5
19:55 1017 30.03 847 25.01 18.8 65.9 33 2.6 36.6
20:00 1018 30.06 847 25.01 18.7 65.7 34 2.8 37
20:05 1018 30.06 847 25.01 18.5 65.3 35 2.9 37.1
20:10 1018 30.06 847 25.01 18.4 65 35 2.8 37.1
20:15 1018 30.06 847 25.01 18.2 64.7 36 3 37.4
20:20 1018 30.06 847 25.01 18 64.4 35 2.4 36.2
20:25 1018 30.06 847 25.01 17.9 64.2 36 2.6 36.7
20:30 1018 30.06 847 25.01 17.7 63.9 35 2.3 36.1
20:35 1018 30.06 847 25.01 17.5 63.6 36 2.3 36.2
20:40 1018 30.06 847 25.01 17.3 63.1 37 2.7 36.9
20:45 1018 30.06 847 25.01 17.1 62.7 39 3 37.4
20:50 1018 30.06 847 25.01 16.8 62.3 39 3 37.5
20:55 1018 30.06 847 25.01 16.7 62 40 3 37.4
21:00 1018 30.06 847 25.01 16.5 61.8 39 2.5 36.6
21:05 1018 30.06 847 25.01 16.4 61.5 39 2.3 36.2
21:10 1018 30.06 847 25.01 16.3 61.3 37 1.7 35.1
21:15 1018 30.06 847 25.01 16.2 61.2 37 1.8 35.2
21:20 1018 30.06 847 25.01 16 60.9 38 1.7 35
21:25 1018 30.06 847 25.01 15.9 60.5 39 1.9 35.5
21:30 1018 30.06 847 25.01 15.6 60.2 40 2.1 35.7
21:35 1018 30.06 847 25.01 15.5 59.8 40 2.1 35.7
21:40 1018 30.06 848 25.04 15.2 59.3 42 2.5 36.5
21:45 1018 30.06 848 25.04 14.7 58.4 47 3.6 38.4
21:50 1019 30.09 848 25.04 13.2 55.8 51 3.3 37.9
21:55 1019 30.09 848 25.04 12.7 54.8 49 2.4 36.3
22:00 1019 30.09 848 25.04 13.1 55.6 44 1.3 34.4
22:05 1019 30.09 848 25.04 13.7 56.7 45 2 35.6
22:10 1019 30.09 848 25.04 13.8 56.8 44 1.9 35.4
22:15 1019 30.09 848 25.04 13.8 56.8 45 2.1 35.8
22:20 1019 30.09 848 25.04 13.4 56 48 2.8 37
22:25 1019 30.09 848 25.04 13.1 55.6 50 2.9 37.2
22:30 1019 30.09 848 25.04 13.1 55.5 49 2.7 36.8
22:35 1019 30.09 848 25.04 13.1 55.6 47 2.2 35.9
22:40 1019 30.09 848 25.04 13.4 56.2 45 1.8 35.3
22:45 1019 30.09 849 25.07 13.7 56.6 44 1.7 35
22:50 1019 30.09 849 25.07 13.8 56.8 43 1.6 34.9
22:55 1019 30.09 849 25.07 14 57.1 42 1.2 34.2
23:00 1019 30.09 849 25.07 14.1 57.3 43 1.7 35.1
23:05 1020 30.12 849 25.07 13.6 56.5 47 2.5 36.6
23:10 1020 30.12 849 25.07 12.8 55 49 2.3 36.2
23:15 1020 30.12 849 25.07 12.9 55.1 47 1.8 35.3
23:20 1020 30.12 849 25.07 12.8 55.1 48 2.1 35.7
23:25 1020 30.12 849 25.07 12.5 54.5 49 2.3 36.1
23:30 1020 30.12 849 25.07 12.5 54.4 50 2.4 36.4
23:35 1020 30.12 849 25.07 12 53.6 51 2.3 36.1
23:40 1020 30.12 849 25.07 11.7 53.1 54 2.7 36.8
23:45 1020 30.12 849 25.07 11.5 52.8 54 2.5 36.5
23:50 1020 30.12 849 25.07 11.4 52.5 55 2.6 36.7
23:55 1020 30.12 849 25.07 11.2 52.1 57 2.9 37.3
24:00 1020 30.12 849 25.07 11.1 52 57 3.1 37.5